sensor_id;sensor_type;location;lat;lon;timestamp;P1;durP1;ratioP1;P2;durP2;ratioP2
3333;SDS011;1679;50.392;8.008;2022-09-09T00:01:38;3.20;;;2.00;;
3333;SDS011;1679;50.392;8.008;2022-09-09T00:07:03;2.90;;;2.20;;
3333;SDS011;1679;50.392;8.008;2022-09-09T00:21:03;4.70;;;2.07;;
3333;SDS011;1679;50.392;8.008;2022-09-09T00:23:37;4.20;;;1.93;;
3333;SDS011;1679;50.392;8.008;2022-09-09T00:28:50;2.57;;;1.53;;
3333;SDS011;1679;50.392;8.008;2022-09-09T00:31:25;3.07;;;2.00;;
3333;SDS011;1679;50.392;8.008;2022-09-09T00:33:53;4.00;;;1.97;;
3333;SDS011;1679;50.392;8.008;2022-09-09T00:36:23;1.90;;;1.80;;
3333;SDS011;1679;50.392;8.008;2022-09-09T00:38:52;3.20;;;2.00;;
3333;SDS011;1679;50.392;8.008;2022-09-09T00:44:14;2.53;;;2.13;;
3333;SDS011;1679;50.392;8.008;2022-09-09T00:47:04;3.50;;;2.03;;
3333;SDS011;1679;50.392;8.008;2022-09-09T00:52:36;1.50;;;1.37;;
3333;SDS011;1679;50.392;8.008;2022-09-09T00:55:21;1.83;;;1.73;;
3333;SDS011;1679;50.392;8.008;2022-09-09T00:58:06;6.17;;;2.27;;
3333;SDS011;1679;50.392;8.008;2022-09-09T01:01:18;2.60;;;2.00;;
3333;SDS011;1679;50.392;8.008;2022-09-09T01:03:34;2.90;;;2.10;;
3333;SDS011;1679;50.392;8.008;2022-09-09T01:06:12;8.23;;;2.20;;
3333;SDS011;1679;50.392;8.008;2022-09-09T01:08:58;3.97;;;1.80;;
3333;SDS011;1679;50.392;8.008;2022-09-09T01:11:43;4.80;;;1.73;;
3333;SDS011;1679;50.392;8.008;2022-09-09T01:17:02;2.00;;;1.90;;
3333;SDS011;1679;50.392;8.008;2022-09-09T01:19:37;3.57;;;2.10;;
3333;SDS011;1679;50.392;8.008;2022-09-09T01:22:21;3.20;;;1.73;;
3333;SDS011;1679;50.392;8.008;2022-09-09T01:24:54;1.87;;;1.47;;
3333;SDS011;1679;50.392;8.008;2022-09-09T01:27:40;1.73;;;1.40;;
3333;SDS011;1679;50.392;8.008;2022-09-09T01:30:09;3.17;;;1.83;;
3333;SDS011;1679;50.392;8.008;2022-09-09T01:32:44;4.30;;;2.33;;
3333;SDS011;1679;50.392;8.008;2022-09-09T01:35:13;2.23;;;1.60;;
3333;SDS011;1679;50.392;8.008;2022-09-09T01:37:59;3.40;;;2.10;;
3333;SDS011;1679;50.392;8.008;2022-09-09T01:40:25;2.17;;;1.63;;
3333;SDS011;1679;50.392;8.008;2022-09-09T01:42:52;4.77;;;1.63;;
3333;SDS011;1679;50.392;8.008;2022-09-09T01:45:18;2.20;;;1.90;;
3333;SDS011;1679;50.392;8.008;2022-09-09T01:47:44;4.27;;;2.10;;
3333;SDS011;1679;50.392;8.008;2022-09-09T01:50:11;5.63;;;2.20;;
3333;SDS011;1679;50.392;8.008;2022-09-09T01:52:39;3.47;;;1.90;;
3333;SDS011;1679;50.392;8.008;2022-09-09T01:55:05;2.60;;;1.97;;
3333;SDS011;1679;50.392;8.008;2022-09-09T01:57:33;5.43;;;2.10;;
3333;SDS011;1679;50.392;8.008;2022-09-09T02:00:21;2.97;;;2.33;;
3333;SDS011;1679;50.392;8.008;2022-09-09T02:07:59;2.73;;;2.50;;
3333;SDS011;1679;50.392;8.008;2022-09-09T02:10:53;3.33;;;2.43;;
3333;SDS011;1679;50.392;8.008;2022-09-09T02:13:24;2.60;;;2.40;;
3333;SDS011;1679;50.392;8.008;2022-09-09T02:18:35;2.73;;;2.53;;
3333;SDS011;1679;50.392;8.008;2022-09-09T02:21:09;3.27;;;2.67;;
3333;SDS011;1679;50.392;8.008;2022-09-09T02:23:36;2.47;;;2.27;;
3333;SDS011;1679;50.392;8.008;2022-09-09T02:26:04;4.03;;;1.93;;
3333;SDS011;1679;50.392;8.008;2022-09-09T02:28:32;2.40;;;2.20;;
3333;SDS011;1679;50.392;8.008;2022-09-09T02:30:59;4.23;;;1.93;;
3333;SDS011;1679;50.392;8.008;2022-09-09T02:33:28;2.40;;;2.20;;
3333;SDS011;1679;50.392;8.008;2022-09-09T02:35:59;3.40;;;2.47;;
3333;SDS011;1679;50.392;8.008;2022-09-09T02:38:28;4.63;;;2.47;;
3333;SDS011;1679;50.392;8.008;2022-09-09T02:40:58;4.17;;;2.10;;
3333;SDS011;1679;50.392;8.008;2022-09-09T02:43:24;5.20;;;2.50;;
3333;SDS011;1679;50.392;8.008;2022-09-09T02:49:08;5.63;;;2.33;;
3333;SDS011;1679;50.392;8.008;2022-09-09T02:51:40;5.67;;;2.80;;
3333;SDS011;1679;50.392;8.008;2022-09-09T02:54:33;3.70;;;2.53;;
3333;SDS011;1679;50.392;8.008;2022-09-09T02:57:08;3.10;;;2.23;;
3333;SDS011;1679;50.392;8.008;2022-09-09T02:59:37;2.30;;;2.10;;
3333;SDS011;1679;50.392;8.008;2022-09-09T03:02:03;2.77;;;1.90;;
3333;SDS011;1679;50.392;8.008;2022-09-09T03:04:29;3.70;;;1.93;;
3333;SDS011;1679;50.392;8.008;2022-09-09T03:06:56;2.50;;;2.30;;
3333;SDS011;1679;50.392;8.008;2022-09-09T03:09:22;2.73;;;2.30;;
3333;SDS011;1679;50.392;8.008;2022-09-09T03:11:48;4.70;;;2.10;;
3333;SDS011;1679;50.392;8.008;2022-09-09T03:14:14;5.73;;;2.33;;
3333;SDS011;1679;50.392;8.008;2022-09-09T03:16:40;3.30;;;2.30;;
3333;SDS011;1679;50.392;8.008;2022-09-09T03:19:07;3.50;;;2.13;;
3333;SDS011;1679;50.392;8.008;2022-09-09T03:21:32;6.00;;;2.10;;
3333;SDS011;1679;50.392;8.008;2022-09-09T03:23:58;4.63;;;2.13;;
3333;SDS011;1679;50.392;8.008;2022-09-09T03:26:24;4.77;;;2.00;;
3333;SDS011;1679;50.392;8.008;2022-09-09T03:28:51;2.30;;;2.10;;
3333;SDS011;1679;50.392;8.008;2022-09-09T03:31:17;5.67;;;2.60;;
3333;SDS011;1679;50.392;8.008;2022-09-09T03:33:44;5.33;;;2.97;;
3333;SDS011;1679;50.392;8.008;2022-09-09T03:36:09;4.87;;;2.80;;
3333;SDS011;1679;50.392;8.008;2022-09-09T03:38:35;7.70;;;2.60;;
3333;SDS011;1679;50.392;8.008;2022-09-09T03:41:01;2.80;;;2.40;;
3333;SDS011;1679;50.392;8.008;2022-09-09T03:43:27;5.20;;;2.80;;
3333;SDS011;1679;50.392;8.008;2022-09-09T03:45:54;2.90;;;2.10;;
3333;SDS011;1679;50.392;8.008;2022-09-09T03:48:21;8.13;;;3.90;;
3333;SDS011;1679;50.392;8.008;2022-09-09T03:50:49;4.40;;;2.20;;
3333;SDS011;1679;50.392;8.008;2022-09-09T03:53:17;3.20;;;2.60;;
3333;SDS011;1679;50.392;8.008;2022-09-09T03:55:47;3.40;;;2.70;;
3333;SDS011;1679;50.392;8.008;2022-09-09T03:58:19;5.40;;;2.60;;
3333;SDS011;1679;50.392;8.008;2022-09-09T04:00:55;4.13;;;2.67;;
3333;SDS011;1679;50.392;8.008;2022-09-09T04:03:23;4.43;;;2.00;;
3333;SDS011;1679;50.392;8.008;2022-09-09T04:05:51;2.50;;;2.10;;
3333;SDS011;1679;50.392;8.008;2022-09-09T04:08:17;3.33;;;2.40;;
3333;SDS011;1679;50.392;8.008;2022-09-09T04:10:47;2.70;;;2.00;;
3333;SDS011;1679;50.392;8.008;2022-09-09T04:13:14;2.90;;;2.33;;
3333;SDS011;1679;50.392;8.008;2022-09-09T04:15:43;2.33;;;2.13;;
3333;SDS011;1679;50.392;8.008;2022-09-09T04:18:18;4.23;;;2.30;;
3333;SDS011;1679;50.392;8.008;2022-09-09T04:20:48;3.10;;;2.40;;
3333;SDS011;1679;50.392;8.008;2022-09-09T04:23:15;3.33;;;2.37;;
3333;SDS011;1679;50.392;8.008;2022-09-09T04:25:44;5.40;;;2.30;;
3333;SDS011;1679;50.392;8.008;2022-09-09T04:28:14;3.23;;;2.10;;
3333;SDS011;1679;50.392;8.008;2022-09-09T04:30:41;2.57;;;2.27;;
3333;SDS011;1679;50.392;8.008;2022-09-09T04:33:07;3.30;;;2.20;;
3333;SDS011;1679;50.392;8.008;2022-09-09T04:35:33;3.33;;;2.17;;
3333;SDS011;1679;50.392;8.008;2022-09-09T04:37:59;4.13;;;2.60;;
3333;SDS011;1679;50.392;8.008;2022-09-09T04:40:24;3.10;;;2.20;;
3333;SDS011;1679;50.392;8.008;2022-09-09T04:42:50;3.43;;;2.17;;
3333;SDS011;1679;50.392;8.008;2022-09-09T04:45:16;3.60;;;1.93;;
3333;SDS011;1679;50.392;8.008;2022-09-09T04:47:42;3.10;;;2.03;;
3333;SDS011;1679;50.392;8.008;2022-09-09T04:50:08;4.40;;;2.10;;
3333;SDS011;1679;50.392;8.008;2022-09-09T04:52:34;2.90;;;1.47;;
3333;SDS011;1679;50.392;8.008;2022-09-09T04:55:02;2.90;;;2.60;;
3333;SDS011;1679;50.392;8.008;2022-09-09T04:57:28;5.43;;;2.17;;
3333;SDS011;1679;50.392;8.008;2022-09-09T04:59:53;2.60;;;1.80;;
3333;SDS011;1679;50.392;8.008;2022-09-09T05:02:19;2.73;;;1.70;;
3333;SDS011;1679;50.392;8.008;2022-09-09T05:04:45;2.67;;;1.90;;
3333;SDS011;1679;50.392;8.008;2022-09-09T05:07:10;2.07;;;1.97;;
3333;SDS011;1679;50.392;8.008;2022-09-09T05:09:36;3.90;;;1.77;;
3333;SDS011;1679;50.392;8.008;2022-09-09T05:12:02;5.10;;;2.00;;
3333;SDS011;1679;50.392;8.008;2022-09-09T05:14:29;4.40;;;2.10;;
3333;SDS011;1679;50.392;8.008;2022-09-09T05:16:55;2.17;;;1.97;;
3333;SDS011;1679;50.392;8.008;2022-09-09T05:19:23;3.93;;;1.70;;
3333;SDS011;1679;50.392;8.008;2022-09-09T05:21:49;3.20;;;2.00;;
3333;SDS011;1679;50.392;8.008;2022-09-09T05:24:15;2.80;;;1.90;;
3333;SDS011;1679;50.392;8.008;2022-09-09T05:26:41;3.93;;;2.20;;
3333;SDS011;1679;50.392;8.008;2022-09-09T05:29:08;3.30;;;2.50;;
3333;SDS011;1679;50.392;8.008;2022-09-09T05:31:34;4.33;;;2.00;;
3333;SDS011;1679;50.392;8.008;2022-09-09T05:33:59;3.23;;;2.30;;
3333;SDS011;1679;50.392;8.008;2022-09-09T05:36:25;9.53;;;2.30;;
3333;SDS011;1679;50.392;8.008;2022-09-09T05:38:50;3.80;;;1.90;;
3333;SDS011;1679;50.392;8.008;2022-09-09T05:41:18;2.97;;;1.80;;
3333;SDS011;1679;50.392;8.008;2022-09-09T05:43:45;2.13;;;2.03;;
3333;SDS011;1679;50.392;8.008;2022-09-09T05:46:12;2.10;;;1.90;;
3333;SDS011;1679;50.392;8.008;2022-09-09T05:48:40;2.87;;;2.10;;
3333;SDS011;1679;50.392;8.008;2022-09-09T05:51:09;3.13;;;1.70;;
3333;SDS011;1679;50.392;8.008;2022-09-09T05:53:42;2.27;;;2.00;;
3333;SDS011;1679;50.392;8.008;2022-09-09T05:56:10;1.80;;;1.70;;
3333;SDS011;1679;50.392;8.008;2022-09-09T05:58:37;2.83;;;2.00;;
3333;SDS011;1679;50.392;8.008;2022-09-09T06:01:04;2.03;;;1.93;;
3333;SDS011;1679;50.392;8.008;2022-09-09T06:03:35;4.60;;;1.80;;
3333;SDS011;1679;50.392;8.008;2022-09-09T06:06:02;2.80;;;1.80;;
3333;SDS011;1679;50.392;8.008;2022-09-09T06:08:36;2.43;;;1.87;;
3333;SDS011;1679;50.392;8.008;2022-09-09T06:11:05;3.63;;;1.60;;
3333;SDS011;1679;50.392;8.008;2022-09-09T06:13:32;5.60;;;2.40;;
3333;SDS011;1679;50.392;8.008;2022-09-09T06:15:58;3.53;;;2.20;;
3333;SDS011;1679;50.392;8.008;2022-09-09T06:18:24;5.73;;;2.37;;
3333;SDS011;1679;50.392;8.008;2022-09-09T06:20:54;4.10;;;2.37;;
3333;SDS011;1679;50.392;8.008;2022-09-09T06:23:21;3.20;;;2.10;;
3333;SDS011;1679;50.392;8.008;2022-09-09T06:25:47;6.27;;;2.47;;
3333;SDS011;1679;50.392;8.008;2022-09-09T06:28:13;3.77;;;2.43;;
3333;SDS011;1679;50.392;8.008;2022-09-09T06:30:42;2.83;;;2.53;;
3333;SDS011;1679;50.392;8.008;2022-09-09T06:33:08;4.63;;;2.30;;
3333;SDS011;1679;50.392;8.008;2022-09-09T06:35:34;6.07;;;2.50;;
3333;SDS011;1679;50.392;8.008;2022-09-09T06:38:00;2.43;;;2.23;;
3333;SDS011;1679;50.392;8.008;2022-09-09T06:40:25;3.10;;;2.37;;
3333;SDS011;1679;50.392;8.008;2022-09-09T06:42:51;3.73;;;2.10;;
3333;SDS011;1679;50.392;8.008;2022-09-09T06:45:16;4.53;;;2.60;;
3333;SDS011;1679;50.392;8.008;2022-09-09T06:47:42;5.27;;;2.40;;
3333;SDS011;1679;50.392;8.008;2022-09-09T06:50:08;3.10;;;2.73;;
3333;SDS011;1679;50.392;8.008;2022-09-09T06:52:35;3.57;;;2.50;;
3333;SDS011;1679;50.392;8.008;2022-09-09T06:55:00;5.60;;;2.63;;
3333;SDS011;1679;50.392;8.008;2022-09-09T06:57:27;4.47;;;2.40;;
3333;SDS011;1679;50.392;8.008;2022-09-09T06:59:52;3.43;;;2.10;;
3333;SDS011;1679;50.392;8.008;2022-09-09T07:02:19;5.23;;;2.27;;
3333;SDS011;1679;50.392;8.008;2022-09-09T07:04:46;2.50;;;2.30;;
3333;SDS011;1679;50.392;8.008;2022-09-09T07:07:17;4.60;;;2.47;;
3333;SDS011;1679;50.392;8.008;2022-09-09T07:09:42;3.90;;;2.60;;
3333;SDS011;1679;50.392;8.008;2022-09-09T07:12:10;4.03;;;2.13;;
3333;SDS011;1679;50.392;8.008;2022-09-09T07:14:37;4.60;;;2.40;;
3333;SDS011;1679;50.392;8.008;2022-09-09T07:17:03;4.23;;;2.27;;
3333;SDS011;1679;50.392;8.008;2022-09-09T07:19:28;4.87;;;2.30;;
3333;SDS011;1679;50.392;8.008;2022-09-09T07:21:54;9.83;;;2.27;;
3333;SDS011;1679;50.392;8.008;2022-09-09T07:24:19;6.70;;;2.60;;
3333;SDS011;1679;50.392;8.008;2022-09-09T07:26:45;5.97;;;2.17;;
3333;SDS011;1679;50.392;8.008;2022-09-09T07:29:12;10.93;;;2.20;;
3333;SDS011;1679;50.392;8.008;2022-09-09T07:31:40;3.03;;;1.43;;
3333;SDS011;1679;50.392;8.008;2022-09-09T07:34:06;4.10;;;1.40;;
3333;SDS011;1679;50.392;8.008;2022-09-09T07:36:33;2.70;;;1.97;;
3333;SDS011;1679;50.392;8.008;2022-09-09T07:39:07;3.10;;;1.80;;
3333;SDS011;1679;50.392;8.008;2022-09-09T07:41:44;3.87;;;1.60;;
3333;SDS011;1679;50.392;8.008;2022-09-09T07:44:12;2.60;;;1.33;;
3333;SDS011;1679;50.392;8.008;2022-09-09T07:46:40;2.07;;;1.40;;
3333;SDS011;1679;50.392;8.008;2022-09-09T07:49:06;7.83;;;1.80;;
3333;SDS011;1679;50.392;8.008;2022-09-09T07:51:34;2.17;;;1.20;;
3333;SDS011;1679;50.392;8.008;2022-09-09T07:54:03;6.83;;;1.90;;
3333;SDS011;1679;50.392;8.008;2022-09-09T07:56:31;3.10;;;1.07;;
3333;SDS011;1679;50.392;8.008;2022-09-09T07:58:57;5.13;;;1.60;;
3333;SDS011;1679;50.392;8.008;2022-09-09T08:01:25;3.90;;;1.20;;
3333;SDS011;1679;50.392;8.008;2022-09-09T08:03:53;9.27;;;1.37;;
3333;SDS011;1679;50.392;8.008;2022-09-09T08:06:28;1.83;;;1.20;;
3333;SDS011;1679;50.392;8.008;2022-09-09T08:08:56;2.73;;;0.80;;
3333;SDS011;1679;50.392;8.008;2022-09-09T08:11:22;5.20;;;1.43;;
3333;SDS011;1679;50.392;8.008;2022-09-09T08:13:49;2.83;;;1.20;;
3333;SDS011;1679;50.392;8.008;2022-09-09T08:16:17;3.60;;;1.17;;
3333;SDS011;1679;50.392;8.008;2022-09-09T08:18:48;5.43;;;1.23;;
3333;SDS011;1679;50.392;8.008;2022-09-09T08:21:18;7.70;;;1.03;;
3333;SDS011;1679;50.392;8.008;2022-09-09T08:23:46;1.60;;;1.10;;
3333;SDS011;1679;50.392;8.008;2022-09-09T08:26:15;2.80;;;1.20;;
3333;SDS011;1679;50.392;8.008;2022-09-09T08:28:44;4.63;;;1.47;;
3333;SDS011;1679;50.392;8.008;2022-09-09T08:31:14;3.57;;;1.20;;
3333;SDS011;1679;50.392;8.008;2022-09-09T08:33:59;3.37;;;1.60;;
3333;SDS011;1679;50.392;8.008;2022-09-09T08:36:29;3.80;;;1.00;;
3333;SDS011;1679;50.392;8.008;2022-09-09T08:38:58;4.13;;;1.20;;
3333;SDS011;1679;50.392;8.008;2022-09-09T08:52:38;3.10;;;1.20;;
3333;SDS011;1679;50.392;8.008;2022-09-09T08:55:29;3.90;;;1.30;;
3333;SDS011;1679;50.392;8.008;2022-09-09T08:58:08;2.87;;;0.90;;
3333;SDS011;1679;50.392;8.008;2022-09-09T09:04:26;4.30;;;1.80;;
3333;SDS011;1679;50.392;8.008;2022-09-09T09:11:43;3.90;;;0.93;;
3333;SDS011;1679;50.392;8.008;2022-09-09T09:19:31;4.40;;;0.93;;
3333;SDS011;1679;50.392;8.008;2022-09-09T09:22:04;3.43;;;1.00;;
3333;SDS011;1679;50.392;8.008;2022-09-09T09:27:27;6.57;;;1.63;;
3333;SDS011;1679;50.392;8.008;2022-09-09T09:30:00;3.90;;;1.30;;
3333;SDS011;1679;50.392;8.008;2022-09-09T09:32:31;2.27;;;0.93;;
3333;SDS011;1679;50.392;8.008;2022-09-09T09:34:59;1.83;;;0.80;;
3333;SDS011;1679;50.392;8.008;2022-09-09T09:37:31;2.53;;;1.03;;
3333;SDS011;1679;50.392;8.008;2022-09-09T09:40:12;1.20;;;0.67;;
3333;SDS011;1679;50.392;8.008;2022-09-09T09:42:51;3.00;;;1.50;;
3333;SDS011;1679;50.392;8.008;2022-09-09T09:45:23;2.70;;;1.23;;
3333;SDS011;1679;50.392;8.008;2022-09-09T09:48:01;5.67;;;1.27;;
3333;SDS011;1679;50.392;8.008;2022-09-09T09:50:31;3.33;;;1.20;;
3333;SDS011;1679;50.392;8.008;2022-09-09T09:52:59;2.57;;;1.23;;
3333;SDS011;1679;50.392;8.008;2022-09-09T09:55:28;2.30;;;1.13;;
3333;SDS011;1679;50.392;8.008;2022-09-09T09:58:04;3.80;;;0.93;;
3333;SDS011;1679;50.392;8.008;2022-09-09T10:00:32;1.77;;;0.80;;
3333;SDS011;1679;50.392;8.008;2022-09-09T10:03:00;3.77;;;1.47;;
3333;SDS011;1679;50.392;8.008;2022-09-09T10:05:27;1.40;;;0.73;;
3333;SDS011;1679;50.392;8.008;2022-09-09T10:08:00;2.67;;;1.10;;
3333;SDS011;1679;50.392;8.008;2022-09-09T10:10:36;1.50;;;0.80;;
3333;SDS011;1679;50.392;8.008;2022-09-09T10:13:20;2.27;;;0.87;;
3333;SDS011;1679;50.392;8.008;2022-09-09T10:16:09;3.70;;;0.90;;
3333;SDS011;1679;50.392;8.008;2022-09-09T10:21:14;2.40;;;0.93;;
3333;SDS011;1679;50.392;8.008;2022-09-09T10:26:34;4.00;;;1.27;;
3333;SDS011;1679;50.392;8.008;2022-09-09T10:35:04;2.10;;;0.67;;
3333;SDS011;1679;50.392;8.008;2022-09-09T10:40:14;3.20;;;0.87;;
3333;SDS011;1679;50.392;8.008;2022-09-09T10:43:22;1.90;;;1.00;;
3333;SDS011;1679;50.392;8.008;2022-09-09T10:52:18;0.97;;;0.70;;
3333;SDS011;1679;50.392;8.008;2022-09-09T10:56:58;3.20;;;1.03;;
3333;SDS011;1679;50.392;8.008;2022-09-09T10:59:46;1.83;;;0.63;;
3333;SDS011;1679;50.392;8.008;2022-09-09T11:02:16;2.27;;;0.70;;
3333;SDS011;1679;50.392;8.008;2022-09-09T11:04:52;1.20;;;1.03;;
3333;SDS011;1679;50.392;8.008;2022-09-09T11:07:28;3.67;;;1.10;;
3333;SDS011;1679;50.392;8.008;2022-09-09T11:10:02;1.57;;;0.80;;
3333;SDS011;1679;50.392;8.008;2022-09-09T11:12:42;2.10;;;0.97;;
3333;SDS011;1679;50.392;8.008;2022-09-09T11:15:31;3.20;;;0.90;;
3333;SDS011;1679;50.392;8.008;2022-09-09T11:18:05;1.30;;;1.00;;
3333;SDS011;1679;50.392;8.008;2022-09-09T11:20:35;1.10;;;0.60;;
3333;SDS011;1679;50.392;8.008;2022-09-09T11:23:05;2.17;;;0.80;;
3333;SDS011;1679;50.392;8.008;2022-09-09T11:25:43;2.63;;;0.70;;
3333;SDS011;1679;50.392;8.008;2022-09-09T11:28:19;2.90;;;0.70;;
3333;SDS011;1679;50.392;8.008;2022-09-09T11:36:38;2.20;;;0.60;;
3333;SDS011;1679;50.392;8.008;2022-09-09T11:44:41;2.13;;;0.80;;
3333;SDS011;1679;50.392;8.008;2022-09-09T11:47:19;1.60;;;0.80;;
3333;SDS011;1679;50.392;8.008;2022-09-09T11:49:51;1.37;;;1.00;;
3333;SDS011;1679;50.392;8.008;2022-09-09T11:52:22;1.53;;;0.70;;
3333;SDS011;1679;50.392;8.008;2022-09-09T11:55:11;1.40;;;0.60;;
3333;SDS011;1679;50.392;8.008;2022-09-09T12:00:49;2.53;;;1.03;;
3333;SDS011;1679;50.392;8.008;2022-09-09T12:06:18;2.30;;;0.73;;
3333;SDS011;1679;50.392;8.008;2022-09-09T12:08:57;4.13;;;1.10;;
3333;SDS011;1679;50.392;8.008;2022-09-09T12:11:30;2.63;;;0.90;;
3333;SDS011;1679;50.392;8.008;2022-09-09T12:13:59;1.43;;;1.10;;
3333;SDS011;1679;50.392;8.008;2022-09-09T12:19:22;2.33;;;0.80;;
3333;SDS011;1679;50.392;8.008;2022-09-09T12:22:07;2.17;;;0.60;;
3333;SDS011;1679;50.392;8.008;2022-09-09T12:24:44;1.10;;;1.00;;
3333;SDS011;1679;50.392;8.008;2022-09-09T12:27:40;2.27;;;1.00;;
3333;SDS011;1679;50.392;8.008;2022-09-09T12:30:35;1.97;;;0.70;;
3333;SDS011;1679;50.392;8.008;2022-09-09T12:33:18;2.27;;;0.77;;
3333;SDS011;1679;50.392;8.008;2022-09-09T12:35:44;1.20;;;0.90;;
3333;SDS011;1679;50.392;8.008;2022-09-09T12:38:22;2.70;;;0.83;;
3333;SDS011;1679;50.392;8.008;2022-09-09T12:40:58;2.07;;;0.90;;
3333;SDS011;1679;50.392;8.008;2022-09-09T12:43:24;2.70;;;0.90;;
3333;SDS011;1679;50.392;8.008;2022-09-09T12:45:51;1.37;;;0.50;;
3333;SDS011;1679;50.392;8.008;2022-09-09T12:48:22;1.63;;;0.40;;
3333;SDS011;1679;50.392;8.008;2022-09-09T12:50:53;0.80;;;0.30;;
3333;SDS011;1679;50.392;8.008;2022-09-09T12:53:24;1.00;;;0.40;;
3333;SDS011;1679;50.392;8.008;2022-09-09T12:56:00;1.00;;;0.50;;
3333;SDS011;1679;50.392;8.008;2022-09-09T12:58:29;1.20;;;0.40;;
3333;SDS011;1679;50.392;8.008;2022-09-09T13:00:58;1.37;;;0.60;;
3333;SDS011;1679;50.392;8.008;2022-09-09T13:03:24;3.83;;;0.60;;
3333;SDS011;1679;50.392;8.008;2022-09-09T13:05:51;2.40;;;0.90;;
3333;SDS011;1679;50.392;8.008;2022-09-09T13:08:18;1.63;;;0.60;;
3333;SDS011;1679;50.392;8.008;2022-09-09T13:10:49;1.00;;;0.70;;
3333;SDS011;1679;50.392;8.008;2022-09-09T13:13:20;3.23;;;0.80;;
3333;SDS011;1679;50.392;8.008;2022-09-09T13:15:59;2.37;;;1.10;;
3333;SDS011;1679;50.392;8.008;2022-09-09T13:18:36;4.10;;;0.93;;
3333;SDS011;1679;50.392;8.008;2022-09-09T13:21:05;3.13;;;1.00;;
3333;SDS011;1679;50.392;8.008;2022-09-09T13:23:31;2.20;;;1.40;;
3333;SDS011;1679;50.392;8.008;2022-09-09T13:26:00;2.73;;;0.70;;
3333;SDS011;1679;50.392;8.008;2022-09-09T13:28:29;1.50;;;0.90;;
3333;SDS011;1679;50.392;8.008;2022-09-09T13:30:56;1.73;;;0.70;;
3333;SDS011;1679;50.392;8.008;2022-09-09T13:33:33;0.90;;;0.70;;
3333;SDS011;1679;50.392;8.008;2022-09-09T13:38:39;1.20;;;0.77;;
3333;SDS011;1679;50.392;8.008;2022-09-09T13:41:22;1.83;;;0.87;;
3333;SDS011;1679;50.392;8.008;2022-09-09T13:43:49;2.97;;;1.17;;
3333;SDS011;1679;50.392;8.008;2022-09-09T13:49:22;2.17;;;0.97;;
3333;SDS011;1679;50.392;8.008;2022-09-09T13:51:48;2.60;;;0.70;;
3333;SDS011;1679;50.392;8.008;2022-09-09T13:54:19;2.73;;;1.17;;
3333;SDS011;1679;50.392;8.008;2022-09-09T13:56:45;1.93;;;1.00;;
3333;SDS011;1679;50.392;8.008;2022-09-09T13:59:13;2.63;;;0.80;;
3333;SDS011;1679;50.392;8.008;2022-09-09T14:01:40;1.90;;;0.90;;
3333;SDS011;1679;50.392;8.008;2022-09-09T14:04:06;4.97;;;0.97;;
3333;SDS011;1679;50.392;8.008;2022-09-09T14:06:34;1.73;;;0.80;;
3333;SDS011;1679;50.392;8.008;2022-09-09T14:09:03;5.87;;;1.20;;
3333;SDS011;1679;50.392;8.008;2022-09-09T14:11:29;3.43;;;0.80;;
3333;SDS011;1679;50.392;8.008;2022-09-09T14:13:54;3.70;;;0.80;;
3333;SDS011;1679;50.392;8.008;2022-09-09T14:16:20;4.77;;;0.93;;
3333;SDS011;1679;50.392;8.008;2022-09-09T14:18:46;5.80;;;0.73;;
3333;SDS011;1679;50.392;8.008;2022-09-09T14:21:12;2.60;;;0.80;;
3333;SDS011;1679;50.392;8.008;2022-09-09T14:23:40;6.00;;;0.60;;
3333;SDS011;1679;50.392;8.008;2022-09-09T14:26:06;3.40;;;0.87;;
3333;SDS011;1679;50.392;8.008;2022-09-09T14:28:33;1.00;;;0.60;;
3333;SDS011;1679;50.392;8.008;2022-09-09T14:31:00;1.47;;;0.50;;
3333;SDS011;1679;50.392;8.008;2022-09-09T14:33:26;1.33;;;0.70;;
3333;SDS011;1679;50.392;8.008;2022-09-09T14:35:57;1.63;;;0.70;;
3333;SDS011;1679;50.392;8.008;2022-09-09T14:38:23;1.43;;;0.50;;
3333;SDS011;1679;50.392;8.008;2022-09-09T14:40:49;2.80;;;0.60;;
3333;SDS011;1679;50.392;8.008;2022-09-09T14:43:15;1.80;;;0.50;;
3333;SDS011;1679;50.392;8.008;2022-09-09T14:45:40;1.07;;;0.70;;
3333;SDS011;1679;50.392;8.008;2022-09-09T14:48:06;2.70;;;0.70;;
3333;SDS011;1679;50.392;8.008;2022-09-09T14:50:31;1.10;;;0.53;;
3333;SDS011;1679;50.392;8.008;2022-09-09T14:52:57;2.90;;;0.80;;
3333;SDS011;1679;50.392;8.008;2022-09-09T14:55:22;1.80;;;0.63;;
3333;SDS011;1679;50.392;8.008;2022-09-09T14:57:48;2.40;;;0.90;;
3333;SDS011;1679;50.392;8.008;2022-09-09T15:00:14;2.57;;;0.80;;
3333;SDS011;1679;50.392;8.008;2022-09-09T15:02:40;1.97;;;0.70;;
3333;SDS011;1679;50.392;8.008;2022-09-09T15:05:06;1.87;;;1.03;;
3333;SDS011;1679;50.392;8.008;2022-09-09T15:07:33;2.30;;;0.80;;
3333;SDS011;1679;50.392;8.008;2022-09-09T15:09:58;1.23;;;0.80;;
3333;SDS011;1679;50.392;8.008;2022-09-09T15:12:24;3.10;;;1.20;;
3333;SDS011;1679;50.392;8.008;2022-09-09T15:14:49;1.77;;;0.80;;
3333;SDS011;1679;50.392;8.008;2022-09-09T15:17:15;1.47;;;0.80;;
3333;SDS011;1679;50.392;8.008;2022-09-09T15:19:41;3.23;;;1.53;;
3333;SDS011;1679;50.392;8.008;2022-09-09T15:22:07;2.03;;;0.80;;
3333;SDS011;1679;50.392;8.008;2022-09-09T15:24:34;1.80;;;1.10;;
3333;SDS011;1679;50.392;8.008;2022-09-09T15:27:00;2.37;;;1.20;;
3333;SDS011;1679;50.392;8.008;2022-09-09T15:29:26;1.90;;;1.00;;
3333;SDS011;1679;50.392;8.008;2022-09-09T15:31:55;3.27;;;1.27;;
3333;SDS011;1679;50.392;8.008;2022-09-09T15:34:21;4.03;;;1.17;;
3333;SDS011;1679;50.392;8.008;2022-09-09T15:36:46;2.43;;;1.07;;
3333;SDS011;1679;50.392;8.008;2022-09-09T15:39:13;4.90;;;1.30;;
3333;SDS011;1679;50.392;8.008;2022-09-09T15:41:42;3.20;;;1.50;;
3333;SDS011;1679;50.392;8.008;2022-09-09T15:44:09;2.87;;;0.53;;
3333;SDS011;1679;50.392;8.008;2022-09-09T15:46:46;3.40;;;0.50;;
3333;SDS011;1679;50.392;8.008;2022-09-09T15:49:16;1.47;;;0.50;;
3333;SDS011;1679;50.392;8.008;2022-09-09T15:51:44;1.40;;;0.57;;
3333;SDS011;1679;50.392;8.008;2022-09-09T15:54:12;2.63;;;0.80;;
3333;SDS011;1679;50.392;8.008;2022-09-09T15:56:41;4.10;;;0.77;;
3333;SDS011;1679;50.392;8.008;2022-09-09T15:59:08;1.73;;;0.70;;
3333;SDS011;1679;50.392;8.008;2022-09-09T16:01:33;1.00;;;0.80;;
3333;SDS011;1679;50.392;8.008;2022-09-09T16:03:59;1.30;;;1.00;;
3333;SDS011;1679;50.392;8.008;2022-09-09T16:06:25;3.90;;;1.13;;
3333;SDS011;1679;50.392;8.008;2022-09-09T16:08:53;1.50;;;0.80;;
3333;SDS011;1679;50.392;8.008;2022-09-09T16:11:21;1.40;;;0.70;;
3333;SDS011;1679;50.392;8.008;2022-09-09T16:13:49;4.17;;;0.90;;
3333;SDS011;1679;50.392;8.008;2022-09-09T16:16:16;1.20;;;0.87;;
3333;SDS011;1679;50.392;8.008;2022-09-09T16:18:47;1.73;;;1.07;;
3333;SDS011;1679;50.392;8.008;2022-09-09T16:21:18;1.40;;;0.97;;
3333;SDS011;1679;50.392;8.008;2022-09-09T16:23:46;1.20;;;0.90;;
3333;SDS011;1679;50.392;8.008;2022-09-09T16:26:14;2.13;;;0.90;;
3333;SDS011;1679;50.392;8.008;2022-09-09T16:28:41;2.63;;;0.80;;
3333;SDS011;1679;50.392;8.008;2022-09-09T16:31:09;2.07;;;0.77;;
3333;SDS011;1679;50.392;8.008;2022-09-09T16:33:38;1.37;;;0.83;;
3333;SDS011;1679;50.392;8.008;2022-09-09T16:36:05;1.67;;;0.80;;
3333;SDS011;1679;50.392;8.008;2022-09-09T16:38:32;0.77;;;0.57;;
3333;SDS011;1679;50.392;8.008;2022-09-09T16:41:00;2.03;;;1.00;;
3333;SDS011;1679;50.392;8.008;2022-09-09T16:43:26;1.00;;;0.70;;
3333;SDS011;1679;50.392;8.008;2022-09-09T16:45:52;1.83;;;0.90;;
3333;SDS011;1679;50.392;8.008;2022-09-09T16:48:18;4.63;;;1.07;;
3333;SDS011;1679;50.392;8.008;2022-09-09T16:50:43;0.90;;;0.70;;
3333;SDS011;1679;50.392;8.008;2022-09-09T16:53:10;1.93;;;1.00;;
3333;SDS011;1679;50.392;8.008;2022-09-09T16:55:38;1.57;;;0.80;;
3333;SDS011;1679;50.392;8.008;2022-09-09T16:58:05;2.00;;;0.60;;
3333;SDS011;1679;50.392;8.008;2022-09-09T17:00:31;1.03;;;0.50;;
3333;SDS011;1679;50.392;8.008;2022-09-09T17:02:57;1.73;;;0.70;;
3333;SDS011;1679;50.392;8.008;2022-09-09T17:05:23;0.83;;;0.50;;
3333;SDS011;1679;50.392;8.008;2022-09-09T17:07:51;1.50;;;0.70;;
3333;SDS011;1679;50.392;8.008;2022-09-09T17:10:16;1.00;;;0.83;;
3333;SDS011;1679;50.392;8.008;2022-09-09T17:12:42;1.30;;;0.70;;
3333;SDS011;1679;50.392;8.008;2022-09-09T17:15:08;2.00;;;0.60;;
3333;SDS011;1679;50.392;8.008;2022-09-09T17:17:34;1.00;;;0.50;;
3333;SDS011;1679;50.392;8.008;2022-09-09T17:20:00;0.93;;;0.67;;
3333;SDS011;1679;50.392;8.008;2022-09-09T17:22:26;2.13;;;0.70;;
3333;SDS011;1679;50.392;8.008;2022-09-09T17:24:52;1.33;;;0.90;;